Portada
METAR-TAF:

METAR-TAF

Aeroports :

Florești, Moldàvia

latitud: 47-51-45N, longitud: 028-12-45E, altitud: 101 m

Observació

L'informe es va fer fa 18 hores i 11 minuts, a les 08:30 UTC
Vent 9 kt del Nord
Temperatura 13°C
Humitat 88%
Pressió 1022 hPa
Visibilitat 10 km o més
Cel ennuvolat a una alçada de 2000 ft, Cumulonimbus.
xàfecs de pluja

METAR: LUBM 270830Z 01009KT 9999 -SHRA BKN020CB 13/11 Q1022 R25/CLRD65

Hora: 05:41 (02:41 UTC)

Pronòstic

L'informe es va fer fa 18 hores i 21 minuts, a les 08:20 UTC
Pronòstic vàlid del 27 a les 09 UTC al 27 a les 18 UTC
Vent 9 kt del Nord
Visibilitat 10 km o més
Cel ennuvolat a una alçada de 3000 ft
Temporalment
l' 27 a les 09 UTC al 27 a les 17 UTC
Visibilitat: 4000 m
Cel ennuvolat a una alçada de 1500 ft
Cel ennuvolat a una alçada de 3000 ft, Cumulonimbus.
tempesta, pluja

TAF: LUBM 270820Z 2709/2718 01009KT 9999 BKN030 TEMPO 2709/2717 4000 TSRA BKN015 BKN030CB

Observacions i pronòstics meteorològics de més de 4000 aeroports (METAR i TAF).

Les estacions disponibles són els punts grocs i vermells al mapa.

Posi el ratolí al punt desitjat per veure el nom de l'estació.

Feu clic per veure les observacions i els pronòstics meteorològics.

Per canviar el mapa: feu clic els botons verds amb una creu de color negre per apropar; al botó verd amb un guió per allunyar la imatge; o en les fletxes verdes per a mapes adjacents.


METAR-TAF: